sensor_id;sensor_type;location;lat;lon;timestamp;P1;durP1;ratioP1;P2;durP2;ratioP2
23614;SDS011;11985;49.404;7.734;2023-11-21T00:01:57;5.03;;;1.77;;
23614;SDS011;11985;49.404;7.734;2023-11-21T00:06:59;2.95;;;1.48;;
23614;SDS011;11985;49.404;7.734;2023-11-21T00:12:01;3.15;;;1.30;;
23614;SDS011;11985;49.404;7.734;2023-11-21T00:17:04;3.90;;;1.48;;
23614;SDS011;11985;49.404;7.734;2023-11-21T00:22:06;2.42;;;1.30;;
23614;SDS011;11985;49.404;7.734;2023-11-21T00:27:07;3.17;;;1.33;;
23614;SDS011;11985;49.404;7.734;2023-11-21T00:32:10;3.15;;;1.50;;
23614;SDS011;11985;49.404;7.734;2023-11-21T00:37:12;3.00;;;1.50;;
23614;SDS011;11985;49.404;7.734;2023-11-21T00:42:13;5.57;;;1.58;;
23614;SDS011;11985;49.404;7.734;2023-11-21T00:47:16;6.18;;;2.08;;
23614;SDS011;11985;49.404;7.734;2023-11-21T00:52:18;6.65;;;2.20;;
23614;SDS011;11985;49.404;7.734;2023-11-21T00:57:19;3.20;;;1.60;;
23614;SDS011;11985;49.404;7.734;2023-11-21T01:02:22;4.70;;;2.00;;
23614;SDS011;11985;49.404;7.734;2023-11-21T01:07:25;6.03;;;2.00;;
23614;SDS011;11985;49.404;7.734;2023-11-21T01:12:27;7.93;;;2.35;;
23614;SDS011;11985;49.404;7.734;2023-11-21T01:17:30;7.65;;;2.50;;
23614;SDS011;11985;49.404;7.734;2023-11-21T01:22:31;5.20;;;1.90;;
23614;SDS011;11985;49.404;7.734;2023-11-21T01:27:33;3.22;;;1.90;;
23614;SDS011;11985;49.404;7.734;2023-11-21T01:32:36;5.32;;;2.33;;
23614;SDS011;11985;49.404;7.734;2023-11-21T01:37:38;4.03;;;2.00;;
23614;SDS011;11985;49.404;7.734;2023-11-21T01:42:39;3.67;;;2.08;;
23614;SDS011;11985;49.404;7.734;2023-11-21T01:47:43;4.80;;;2.20;;
23614;SDS011;11985;49.404;7.734;2023-11-21T01:52:46;6.90;;;2.78;;
23614;SDS011;11985;49.404;7.734;2023-11-21T01:57:48;4.75;;;2.97;;
23614;SDS011;11985;49.404;7.734;2023-11-21T02:02:52;10.60;;;3.13;;
23614;SDS011;11985;49.404;7.734;2023-11-21T02:07:54;9.80;;;3.58;;
23614;SDS011;11985;49.404;7.734;2023-11-21T02:12:56;7.13;;;3.80;;
23614;SDS011;11985;49.404;7.734;2023-11-21T02:17:59;6.25;;;3.30;;
23614;SDS011;11985;49.404;7.734;2023-11-21T02:23:04;4.20;;;3.03;;
23614;SDS011;11985;49.404;7.734;2023-11-21T02:28:06;3.67;;;2.90;;
23614;SDS011;11985;49.404;7.734;2023-11-21T02:33:07;5.10;;;3.10;;
23614;SDS011;11985;49.404;7.734;2023-11-21T02:38:10;6.93;;;2.92;;
23614;SDS011;11985;49.404;7.734;2023-11-21T02:43:12;5.60;;;2.90;;
23614;SDS011;11985;49.404;7.734;2023-11-21T02:48:13;3.95;;;2.95;;
23614;SDS011;11985;49.404;7.734;2023-11-21T02:53:16;4.53;;;2.88;;
23614;SDS011;11985;49.404;7.734;2023-11-21T02:58:18;5.18;;;2.75;;
23614;SDS011;11985;49.404;7.734;2023-11-21T03:03:20;6.68;;;3.03;;
23614;SDS011;11985;49.404;7.734;2023-11-21T03:08:25;6.50;;;3.17;;
23614;SDS011;11985;49.404;7.734;2023-11-21T03:13:26;4.72;;;3.45;;
23614;SDS011;11985;49.404;7.734;2023-11-21T03:18:28;4.40;;;3.25;;
23614;SDS011;11985;49.404;7.734;2023-11-21T03:23:31;8.45;;;3.63;;
23614;SDS011;11985;49.404;7.734;2023-11-21T03:28:33;7.10;;;3.40;;
23614;SDS011;11985;49.404;7.734;2023-11-21T03:33:35;4.65;;;3.13;;
23614;SDS011;11985;49.404;7.734;2023-11-21T03:38:38;6.03;;;3.65;;
23614;SDS011;11985;49.404;7.734;2023-11-21T03:43:39;5.15;;;3.97;;
23614;SDS011;11985;49.404;7.734;2023-11-21T03:48:41;5.97;;;3.88;;
23614;SDS011;11985;49.404;7.734;2023-11-21T03:53:44;3.70;;;3.10;;
23614;SDS011;11985;49.404;7.734;2023-11-21T03:58:46;5.15;;;3.63;;
23614;SDS011;11985;49.404;7.734;2023-11-21T04:03:47;8.60;;;3.90;;
23614;SDS011;11985;49.404;7.734;2023-11-21T04:08:51;4.78;;;3.15;;
23614;SDS011;11985;49.404;7.734;2023-11-21T04:13:52;4.90;;;3.70;;
23614;SDS011;11985;49.404;7.734;2023-11-21T04:18:54;5.13;;;3.85;;
23614;SDS011;11985;49.404;7.734;2023-11-21T04:23:57;4.38;;;3.25;;
23614;SDS011;11985;49.404;7.734;2023-11-21T04:28:58;6.28;;;3.95;;
23614;SDS011;11985;49.404;7.734;2023-11-21T04:34:00;5.30;;;3.28;;
23614;SDS011;11985;49.404;7.734;2023-11-21T04:39:05;5.15;;;3.28;;
23614;SDS011;11985;49.404;7.734;2023-11-21T04:44:07;5.57;;;3.88;;
23614;SDS011;11985;49.404;7.734;2023-11-21T04:49:09;6.10;;;4.30;;
23614;SDS011;11985;49.404;7.734;2023-11-21T04:54:12;7.13;;;4.75;;
23614;SDS011;11985;49.404;7.734;2023-11-21T04:59:14;6.63;;;5.03;;
23614;SDS011;11985;49.404;7.734;2023-11-21T05:04:15;7.15;;;3.67;;
23614;SDS011;11985;49.404;7.734;2023-11-21T05:09:18;5.22;;;4.07;;
23614;SDS011;11985;49.404;7.734;2023-11-21T05:14:20;9.82;;;4.00;;
23614;SDS011;11985;49.404;7.734;2023-11-21T05:19:21;8.63;;;4.07;;
23614;SDS011;11985;49.404;7.734;2023-11-21T05:24:24;4.72;;;3.20;;
23614;SDS011;11985;49.404;7.734;2023-11-21T05:29:26;4.80;;;3.67;;
23614;SDS011;11985;49.404;7.734;2023-11-21T05:34:27;5.03;;;3.25;;
23614;SDS011;11985;49.404;7.734;2023-11-21T05:39:30;5.32;;;3.63;;
23614;SDS011;11985;49.404;7.734;2023-11-21T05:44:32;5.38;;;3.03;;
23614;SDS011;11985;49.404;7.734;2023-11-21T05:49:35;6.15;;;3.20;;
23614;SDS011;11985;49.404;7.734;2023-11-21T05:54:38;12.52;;;3.22;;
23614;SDS011;11985;49.404;7.734;2023-11-21T05:59:40;3.25;;;2.50;;
23614;SDS011;11985;49.404;7.734;2023-11-21T06:04:41;3.72;;;2.50;;
23614;SDS011;11985;49.404;7.734;2023-11-21T06:09:44;3.13;;;2.17;;
23614;SDS011;11985;49.404;7.734;2023-11-21T06:14:46;3.50;;;2.80;;
23614;SDS011;11985;49.404;7.734;2023-11-21T06:19:48;3.33;;;2.85;;
23614;SDS011;11985;49.404;7.734;2023-11-21T06:24:51;5.55;;;3.22;;
23614;SDS011;11985;49.404;7.734;2023-11-21T06:29:52;2.97;;;2.40;;
23614;SDS011;11985;49.404;7.734;2023-11-21T06:34:54;3.53;;;2.85;;
23614;SDS011;11985;49.404;7.734;2023-11-21T06:39:57;6.05;;;2.97;;
23614;SDS011;11985;49.404;7.734;2023-11-21T06:44:59;5.65;;;3.17;;
23614;SDS011;11985;49.404;7.734;2023-11-21T06:50:04;9.87;;;3.30;;
23614;SDS011;11985;49.404;7.734;2023-11-21T06:55:08;4.13;;;3.10;;
23614;SDS011;11985;49.404;7.734;2023-11-21T07:00:11;4.93;;;3.35;;
23614;SDS011;11985;49.404;7.734;2023-11-21T07:05:13;5.53;;;3.67;;
23614;SDS011;11985;49.404;7.734;2023-11-21T07:10:17;5.85;;;3.20;;
23614;SDS011;11985;49.404;7.734;2023-11-21T07:15:19;4.65;;;2.40;;
23614;SDS011;11985;49.404;7.734;2023-11-21T07:20:21;10.43;;;4.28;;
23614;SDS011;11985;49.404;7.734;2023-11-21T07:25:24;5.22;;;3.60;;
23614;SDS011;11985;49.404;7.734;2023-11-21T07:30:26;8.20;;;4.93;;
23614;SDS011;11985;49.404;7.734;2023-11-21T07:35:28;5.65;;;4.15;;
23614;SDS011;11985;49.404;7.734;2023-11-21T07:40:31;6.22;;;4.70;;
23614;SDS011;11985;49.404;7.734;2023-11-21T07:45:32;5.47;;;4.00;;
23614;SDS011;11985;49.404;7.734;2023-11-21T07:50:34;7.63;;;4.80;;
23614;SDS011;11985;49.404;7.734;2023-11-21T07:55:37;11.82;;;4.25;;
23614;SDS011;11985;49.404;7.734;2023-11-21T08:00:39;6.60;;;3.75;;
23614;SDS011;11985;49.404;7.734;2023-11-21T08:05:40;5.30;;;3.85;;
23614;SDS011;11985;49.404;7.734;2023-11-21T08:10:43;8.32;;;3.63;;
23614;SDS011;11985;49.404;7.734;2023-11-21T08:15:46;7.03;;;3.87;;
23614;SDS011;11985;49.404;7.734;2023-11-21T08:20:47;7.63;;;3.97;;
23614;SDS011;11985;49.404;7.734;2023-11-21T08:25:50;7.40;;;4.57;;
23614;SDS011;11985;49.404;7.734;2023-11-21T08:30:53;9.60;;;4.65;;
23614;SDS011;11985;49.404;7.734;2023-11-21T08:35:55;5.82;;;3.92;;
23614;SDS011;11985;49.404;7.734;2023-11-21T08:40:58;9.57;;;4.57;;
23614;SDS011;11985;49.404;7.734;2023-11-21T08:46:00;6.70;;;4.13;;
23614;SDS011;11985;49.404;7.734;2023-11-21T08:51:03;9.25;;;4.20;;
23614;SDS011;11985;49.404;7.734;2023-11-21T08:56:07;9.10;;;4.43;;
23614;SDS011;11985;49.404;7.734;2023-11-21T09:01:13;7.90;;;4.20;;
23614;SDS011;11985;49.404;7.734;2023-11-21T09:06:14;6.22;;;3.17;;
23614;SDS011;11985;49.404;7.734;2023-11-21T09:11:17;5.28;;;2.95;;
23614;SDS011;11985;49.404;7.734;2023-11-21T09:16:19;6.18;;;3.63;;
23614;SDS011;11985;49.404;7.734;2023-11-21T09:21:21;4.68;;;2.90;;
23614;SDS011;11985;49.404;7.734;2023-11-21T09:26:24;4.72;;;3.35;;
23614;SDS011;11985;49.404;7.734;2023-11-21T09:31:26;6.55;;;3.63;;
23614;SDS011;11985;49.404;7.734;2023-11-21T09:36:28;12.73;;;4.78;;
23614;SDS011;11985;49.404;7.734;2023-11-21T09:41:34;13.82;;;4.90;;
23614;SDS011;11985;49.404;7.734;2023-11-21T09:46:41;4.55;;;3.53;;
23614;SDS011;11985;49.404;7.734;2023-11-21T09:51:44;7.40;;;3.47;;
23614;SDS011;11985;49.404;7.734;2023-11-21T09:56:49;9.27;;;3.77;;
23614;SDS011;11985;49.404;7.734;2023-11-21T10:01:51;7.75;;;3.10;;
23614;SDS011;11985;49.404;7.734;2023-11-21T10:06:52;5.30;;;3.53;;
23614;SDS011;11985;49.404;7.734;2023-11-21T10:11:55;5.03;;;3.17;;
23614;SDS011;11985;49.404;7.734;2023-11-21T10:17:00;3.60;;;2.95;;
23614;SDS011;11985;49.404;7.734;2023-11-21T10:22:02;6.40;;;3.15;;
23614;SDS011;11985;49.404;7.734;2023-11-21T10:27:06;5.07;;;3.10;;
23614;SDS011;11985;49.404;7.734;2023-11-21T10:32:07;9.88;;;3.63;;
23614;SDS011;11985;49.404;7.734;2023-11-21T10:37:13;5.13;;;3.00;;
23614;SDS011;11985;49.404;7.734;2023-11-21T10:42:17;3.92;;;3.08;;
23614;SDS011;11985;49.404;7.734;2023-11-21T10:52:25;6.63;;;3.78;;
23614;SDS011;11985;49.404;7.734;2023-11-21T11:02:31;5.47;;;2.83;;
23614;SDS011;11985;49.404;7.734;2023-11-21T11:07:34;7.95;;;3.60;;
23614;SDS011;11985;49.404;7.734;2023-11-21T11:12:38;12.38;;;4.25;;
23614;SDS011;11985;49.404;7.734;2023-11-21T11:17:40;15.23;;;7.53;;
23614;SDS011;11985;49.404;7.734;2023-11-21T11:22:47;15.25;;;8.98;;
23614;SDS011;11985;49.404;7.734;2023-11-21T11:28:02;6.13;;;2.88;;
23614;SDS011;11985;49.404;7.734;2023-11-21T11:33:10;5.95;;;3.92;;
23614;SDS011;11985;49.404;7.734;2023-11-21T11:38:27;12.20;;;4.40;;
23614;SDS011;11985;49.404;7.734;2023-11-21T11:43:33;7.65;;;4.57;;
23614;SDS011;11985;49.404;7.734;2023-11-21T11:48:44;13.02;;;4.93;;
23614;SDS011;11985;49.404;7.734;2023-11-21T11:53:47;10.38;;;3.42;;
23614;SDS011;11985;49.404;7.734;2023-11-21T11:58:51;6.32;;;2.65;;
23614;SDS011;11985;49.404;7.734;2023-11-21T12:09:31;8.40;;;4.10;;
23614;SDS011;11985;49.404;7.734;2023-11-21T12:14:35;14.25;;;7.60;;
23614;SDS011;11985;49.404;7.734;2023-11-21T12:19:37;7.37;;;3.40;;
23614;SDS011;11985;49.404;7.734;2023-11-21T12:24:39;8.48;;;2.78;;
23614;SDS011;11985;49.404;7.734;2023-11-21T12:29:42;8.82;;;2.90;;
23614;SDS011;11985;49.404;7.734;2023-11-21T12:34:43;6.80;;;2.53;;
23614;SDS011;11985;49.404;7.734;2023-11-21T12:39:45;5.72;;;2.70;;
23614;SDS011;11985;49.404;7.734;2023-11-21T12:44:48;3.88;;;2.30;;
23614;SDS011;11985;49.404;7.734;2023-11-21T12:49:50;6.63;;;2.10;;
23614;SDS011;11985;49.404;7.734;2023-11-21T12:54:51;7.80;;;1.88;;
23614;SDS011;11985;49.404;7.734;2023-11-21T12:59:57;3.22;;;1.80;;
23614;SDS011;11985;49.404;7.734;2023-11-21T13:05:00;4.22;;;1.70;;
23614;SDS011;11985;49.404;7.734;2023-11-21T13:10:06;7.47;;;1.90;;
23614;SDS011;11985;49.404;7.734;2023-11-21T13:15:10;8.80;;;3.33;;
23614;SDS011;11985;49.404;7.734;2023-11-21T13:20:17;4.90;;;2.15;;
23614;SDS011;11985;49.404;7.734;2023-11-21T13:25:20;4.85;;;1.98;;
23614;SDS011;11985;49.404;7.734;2023-11-21T13:30:24;10.35;;;3.90;;
23614;SDS011;11985;49.404;7.734;2023-11-21T13:35:27;20.05;;;11.57;;
23614;SDS011;11985;49.404;7.734;2023-11-21T13:40:32;6.28;;;3.60;;
23614;SDS011;11985;49.404;7.734;2023-11-21T13:45:44;5.32;;;2.67;;
23614;SDS011;11985;49.404;7.734;2023-11-21T13:50:46;9.77;;;3.73;;
23614;SDS011;11985;49.404;7.734;2023-11-21T13:55:55;3.25;;;2.10;;
23614;SDS011;11985;49.404;7.734;2023-11-21T14:00:59;6.78;;;3.53;;
23614;SDS011;11985;49.404;7.734;2023-11-21T14:06:02;6.70;;;3.35;;
23614;SDS011;11985;49.404;7.734;2023-11-21T14:11:08;3.85;;;1.60;;
23614;SDS011;11985;49.404;7.734;2023-11-21T14:16:15;7.47;;;3.45;;
23614;SDS011;11985;49.404;7.734;2023-11-21T14:21:18;10.37;;;4.30;;
23614;SDS011;11985;49.404;7.734;2023-11-21T14:26:19;12.63;;;5.95;;
23614;SDS011;11985;49.404;7.734;2023-11-21T14:31:22;5.15;;;3.15;;
23614;SDS011;11985;49.404;7.734;2023-11-21T14:36:24;5.60;;;3.00;;
23614;SDS011;11985;49.404;7.734;2023-11-21T14:41:26;12.07;;;5.43;;
23614;SDS011;11985;49.404;7.734;2023-11-21T14:46:30;6.43;;;2.67;;
23614;SDS011;11985;49.404;7.734;2023-11-21T14:51:32;5.78;;;3.22;;
23614;SDS011;11985;49.404;7.734;2023-11-21T14:56:51;5.53;;;3.60;;
23614;SDS011;11985;49.404;7.734;2023-11-21T15:01:54;10.15;;;4.82;;
23614;SDS011;11985;49.404;7.734;2023-11-21T15:06:56;10.90;;;5.82;;
23614;SDS011;11985;49.404;7.734;2023-11-21T15:11:59;8.20;;;4.80;;
23614;SDS011;11985;49.404;7.734;2023-11-21T15:17:11;11.45;;;5.32;;
23614;SDS011;11985;49.404;7.734;2023-11-21T15:22:15;9.00;;;4.50;;
23614;SDS011;11985;49.404;7.734;2023-11-21T15:27:17;11.40;;;6.43;;
23614;SDS011;11985;49.404;7.734;2023-11-21T15:32:21;11.38;;;5.28;;
23614;SDS011;11985;49.404;7.734;2023-11-21T15:37:23;11.35;;;4.53;;
23614;SDS011;11985;49.404;7.734;2023-11-21T15:42:27;10.00;;;5.10;;
23614;SDS011;11985;49.404;7.734;2023-11-21T15:47:30;14.73;;;7.47;;
23614;SDS011;11985;49.404;7.734;2023-11-21T15:52:32;10.85;;;5.57;;
23614;SDS011;11985;49.404;7.734;2023-11-21T15:57:33;10.30;;;5.07;;
23614;SDS011;11985;49.404;7.734;2023-11-21T16:02:36;13.38;;;5.47;;
23614;SDS011;11985;49.404;7.734;2023-11-21T16:07:38;10.77;;;6.22;;
23614;SDS011;11985;49.404;7.734;2023-11-21T16:12:41;12.98;;;5.65;;
23614;SDS011;11985;49.404;7.734;2023-11-21T16:17:45;12.25;;;5.97;;
23614;SDS011;11985;49.404;7.734;2023-11-21T16:22:46;16.83;;;7.03;;
23614;SDS011;11985;49.404;7.734;2023-11-21T16:27:49;16.58;;;6.20;;
23614;SDS011;11985;49.404;7.734;2023-11-21T16:32:52;11.57;;;6.22;;
23614;SDS011;11985;49.404;7.734;2023-11-21T16:37:54;11.23;;;6.82;;
23614;SDS011;11985;49.404;7.734;2023-11-21T16:42:56;12.95;;;7.00;;
23614;SDS011;11985;49.404;7.734;2023-11-21T16:47:59;11.35;;;5.38;;
23614;SDS011;11985;49.404;7.734;2023-11-21T16:53:02;11.02;;;5.88;;
23614;SDS011;11985;49.404;7.734;2023-11-21T16:58:04;11.50;;;5.75;;
23614;SDS011;11985;49.404;7.734;2023-11-21T17:03:07;13.10;;;7.03;;
23614;SDS011;11985;49.404;7.734;2023-11-21T17:08:09;15.13;;;7.60;;
23614;SDS011;11985;49.404;7.734;2023-11-21T17:13:12;14.35;;;8.02;;
23614;SDS011;11985;49.404;7.734;2023-11-21T17:18:15;19.27;;;9.32;;
23614;SDS011;11985;49.404;7.734;2023-11-21T17:23:18;12.13;;;7.15;;
23614;SDS011;11985;49.404;7.734;2023-11-21T17:28:19;18.10;;;8.15;;
23614;SDS011;11985;49.404;7.734;2023-11-21T17:33:23;21.75;;;9.63;;
23614;SDS011;11985;49.404;7.734;2023-11-21T17:38:25;15.40;;;6.65;;
23614;SDS011;11985;49.404;7.734;2023-11-21T17:43:26;18.77;;;7.63;;
23614;SDS011;11985;49.404;7.734;2023-11-21T17:48:29;14.43;;;7.78;;
23614;SDS011;11985;49.404;7.734;2023-11-21T17:53:32;21.13;;;9.43;;
23614;SDS011;11985;49.404;7.734;2023-11-21T17:58:34;24.23;;;10.25;;
23614;SDS011;11985;49.404;7.734;2023-11-21T18:03:37;16.10;;;7.25;;
23614;SDS011;11985;49.404;7.734;2023-11-21T18:08:39;26.70;;;11.88;;
23614;SDS011;11985;49.404;7.734;2023-11-21T18:13:42;13.60;;;7.93;;
23614;SDS011;11985;49.404;7.734;2023-11-21T18:18:45;15.98;;;7.93;;
23614;SDS011;11985;49.404;7.734;2023-11-21T18:23:47;17.67;;;8.15;;
23614;SDS011;11985;49.404;7.734;2023-11-21T18:28:48;18.92;;;6.57;;
23614;SDS011;11985;49.404;7.734;2023-11-21T18:33:51;12.07;;;6.18;;
23614;SDS011;11985;49.404;7.734;2023-11-21T18:38:53;14.18;;;6.70;;
23614;SDS011;11985;49.404;7.734;2023-11-21T18:43:55;16.00;;;7.13;;
23614;SDS011;11985;49.404;7.734;2023-11-21T18:48:58;19.08;;;8.75;;
23614;SDS011;11985;49.404;7.734;2023-11-21T18:54:00;15.35;;;8.15;;
23614;SDS011;11985;49.404;7.734;2023-11-21T18:59:01;18.20;;;9.73;;
23614;SDS011;11985;49.404;7.734;2023-11-21T19:04:06;16.90;;;8.93;;
23614;SDS011;11985;49.404;7.734;2023-11-21T19:09:08;21.80;;;11.55;;
23614;SDS011;11985;49.404;7.734;2023-11-21T19:14:12;35.20;;;14.00;;
23614;SDS011;11985;49.404;7.734;2023-11-21T19:19:15;27.65;;;11.90;;
23614;SDS011;11985;49.404;7.734;2023-11-21T19:24:17;22.50;;;11.73;;
23614;SDS011;11985;49.404;7.734;2023-11-21T19:29:18;28.17;;;12.68;;
23614;SDS011;11985;49.404;7.734;2023-11-21T19:34:21;22.90;;;12.20;;
23614;SDS011;11985;49.404;7.734;2023-11-21T19:39:23;22.65;;;10.88;;
23614;SDS011;11985;49.404;7.734;2023-11-21T19:44:25;20.92;;;10.48;;
23614;SDS011;11985;49.404;7.734;2023-11-21T19:49:29;24.48;;;11.35;;
23614;SDS011;11985;49.404;7.734;2023-11-21T19:54:33;21.45;;;10.95;;
23614;SDS011;11985;49.404;7.734;2023-11-21T19:59:35;22.15;;;11.95;;
23614;SDS011;11985;49.404;7.734;2023-11-21T20:04:40;27.10;;;11.27;;
23614;SDS011;11985;49.404;7.734;2023-11-21T20:09:42;26.05;;;12.35;;
23614;SDS011;11985;49.404;7.734;2023-11-21T20:14:44;29.13;;;13.57;;
23614;SDS011;11985;49.404;7.734;2023-11-21T20:19:48;25.42;;;11.82;;
23614;SDS011;11985;49.404;7.734;2023-11-21T20:24:49;31.23;;;13.50;;
23614;SDS011;11985;49.404;7.734;2023-11-21T20:29:51;25.48;;;13.23;;
23614;SDS011;11985;49.404;7.734;2023-11-21T20:34:54;28.65;;;12.05;;
23614;SDS011;11985;49.404;7.734;2023-11-21T20:39:55;26.80;;;13.38;;
23614;SDS011;11985;49.404;7.734;2023-11-21T20:44:57;34.80;;;16.23;;
23614;SDS011;11985;49.404;7.734;2023-11-21T20:50:00;23.60;;;11.68;;
23614;SDS011;11985;49.404;7.734;2023-11-21T20:55:03;27.40;;;12.63;;
23614;SDS011;11985;49.404;7.734;2023-11-21T21:00:05;23.55;;;11.52;;
23614;SDS011;11985;49.404;7.734;2023-11-21T21:05:12;25.67;;;11.98;;
23614;SDS011;11985;49.404;7.734;2023-11-21T21:10:16;26.67;;;12.50;;
23614;SDS011;11985;49.404;7.734;2023-11-21T21:15:18;36.83;;;14.57;;
23614;SDS011;11985;49.404;7.734;2023-11-21T21:20:21;27.65;;;12.85;;
23614;SDS011;11985;49.404;7.734;2023-11-21T21:25:23;25.88;;;13.52;;
23614;SDS011;11985;49.404;7.734;2023-11-21T21:30:25;26.75;;;13.23;;
23614;SDS011;11985;49.404;7.734;2023-11-21T21:35:29;23.70;;;12.43;;
23614;SDS011;11985;49.404;7.734;2023-11-21T21:40:30;26.60;;;11.50;;
23614;SDS011;11985;49.404;7.734;2023-11-21T21:45:33;22.85;;;10.52;;
23614;SDS011;11985;49.404;7.734;2023-11-21T21:50:37;26.38;;;12.93;;
23614;SDS011;11985;49.404;7.734;2023-11-21T21:55:39;26.10;;;12.05;;
23614;SDS011;11985;49.404;7.734;2023-11-21T22:00:40;22.80;;;12.35;;
23614;SDS011;11985;49.404;7.734;2023-11-21T22:05:44;22.88;;;12.25;;
23614;SDS011;11985;49.404;7.734;2023-11-21T22:10:45;4.97;;;2.78;;
23614;SDS011;11985;49.404;7.734;2023-11-21T22:15:47;3.75;;;2.35;;
23614;SDS011;11985;49.404;7.734;2023-11-21T22:20:50;4.03;;;2.50;;
23614;SDS011;11985;49.404;7.734;2023-11-21T22:25:52;6.25;;;2.30;;
23614;SDS011;11985;49.404;7.734;2023-11-21T22:30:54;6.22;;;3.55;;
23614;SDS011;11985;49.404;7.734;2023-11-21T22:35:57;5.32;;;3.88;;
23614;SDS011;11985;49.404;7.734;2023-11-21T22:40:58;6.97;;;4.68;;
23614;SDS011;11985;49.404;7.734;2023-11-21T22:46:01;9.32;;;5.75;;
23614;SDS011;11985;49.404;7.734;2023-11-21T22:51:04;9.45;;;5.60;;
23614;SDS011;11985;49.404;7.734;2023-11-21T22:56:06;11.65;;;6.78;;
23614;SDS011;11985;49.404;7.734;2023-11-21T23:01:08;10.80;;;7.03;;
23614;SDS011;11985;49.404;7.734;2023-11-21T23:06:16;13.02;;;7.05;;
23614;SDS011;11985;49.404;7.734;2023-11-21T23:11:17;14.00;;;7.68;;
23614;SDS011;11985;49.404;7.734;2023-11-21T23:16:21;12.15;;;7.10;;
23614;SDS011;11985;49.404;7.734;2023-11-21T23:21:24;15.45;;;7.82;;
23614;SDS011;11985;49.404;7.734;2023-11-21T23:26:29;11.80;;;6.85;;
23614;SDS011;11985;49.404;7.734;2023-11-21T23:31:30;14.25;;;7.70;;
23614;SDS011;11985;49.404;7.734;2023-11-21T23:36:33;15.00;;;7.45;;
23614;SDS011;11985;49.404;7.734;2023-11-21T23:41:34;12.50;;;7.03;;
23614;SDS011;11985;49.404;7.734;2023-11-21T23:46:36;12.70;;;6.93;;
23614;SDS011;11985;49.404;7.734;2023-11-21T23:51:39;12.73;;;7.38;;
23614;SDS011;11985;49.404;7.734;2023-11-21T23:56:41;11.82;;;6.65;;
